createdAt,value
2018-01-26T00:00:31.709Z,5.63
2018-01-26T00:03:00.185Z,5.40
2018-01-26T00:05:28.595Z,5.43
2018-01-26T00:07:57.063Z,5.72
2018-01-26T00:10:26.227Z,5.57
2018-01-26T00:12:54.625Z,6.25
2018-01-26T00:15:23.193Z,5.87
2018-01-26T00:17:51.587Z,6.07
2018-01-26T00:20:20.210Z,5.60
2018-01-26T00:22:49.573Z,5.53
2018-01-26T00:25:17.968Z,5.57
2018-01-26T00:27:46.860Z,6.07
2018-01-26T00:30:15.430Z,5.82
2018-01-26T00:32:44.854Z,5.37
2018-01-26T00:35:13.785Z,4.68
2018-01-26T00:37:43.243Z,5.35
2018-01-26T00:40:11.607Z,5.23
2018-01-26T00:42:40.042Z,5.53
2018-01-26T00:45:08.474Z,5.68
2018-01-26T00:47:37.115Z,5.75
2018-01-26T00:50:05.620Z,5.50
2018-01-26T00:52:34.793Z,5.00
2018-01-26T00:55:03.203Z,5.78
2018-01-26T00:57:33.747Z,5.22
2018-01-26T01:00:02.768Z,5.62
2018-01-26T01:02:31.649Z,5.20
2018-01-26T01:05:00.097Z,4.97
2018-01-26T01:07:28.878Z,5.50
2018-01-26T01:09:57.386Z,5.05
2018-01-26T01:12:25.734Z,5.20
2018-01-26T01:14:54.172Z,5.50
2018-01-26T01:17:22.516Z,5.07
2018-01-26T01:19:50.875Z,4.68
2018-01-26T01:22:20.678Z,4.90
2018-01-26T01:24:49.825Z,4.72
2018-01-26T01:27:18.238Z,5.10
2018-01-26T01:32:43.650Z,4.40
2018-01-26T01:35:12.267Z,4.63
2018-01-26T01:37:41.403Z,5.20
2018-01-26T01:40:09.797Z,4.75
2018-01-26T01:42:38.392Z,5.15
2018-01-26T01:45:06.796Z,4.75
2018-01-26T01:47:35.162Z,4.32
2018-01-26T01:50:03.662Z,4.87
2018-01-26T01:52:32.048Z,4.70
2018-01-26T01:55:00.463Z,4.40
2018-01-26T01:57:30.079Z,4.87
2018-01-26T02:00:01.526Z,4.68
2018-01-26T02:02:30.730Z,4.80
2018-01-26T02:05:01.055Z,4.30
2018-01-26T02:07:31.344Z,5.55
2018-01-26T02:10:03.748Z,4.67
2018-01-26T02:12:32.258Z,4.43
2018-01-26T02:15:00.669Z,4.78
2018-01-26T02:17:29.049Z,4.87
2018-01-26T02:19:57.805Z,5.12
2018-01-26T02:22:26.651Z,4.07
2018-01-26T02:24:56.456Z,4.28
2018-01-26T02:27:25.131Z,4.15
2018-01-26T02:29:54.262Z,4.55
2018-01-26T02:32:22.626Z,3.90
2018-01-26T02:34:53.259Z,4.80
2018-01-26T02:37:23.273Z,4.50
2018-01-26T02:39:51.707Z,4.28
2018-01-26T02:42:20.193Z,3.95
2018-01-26T02:44:48.578Z,4.53
2018-01-26T02:47:17.753Z,4.75
2018-01-26T02:49:46.234Z,4.40
2018-01-26T02:52:14.599Z,4.40
2018-01-26T02:54:42.947Z,4.72
2018-01-26T02:57:11.400Z,4.20
2018-01-26T02:59:39.793Z,4.53
2018-01-26T03:02:08.154Z,4.35
2018-01-26T03:04:36.924Z,3.70
2018-01-26T03:07:05.520Z,4.43
2018-01-26T03:09:33.921Z,3.92
2018-01-26T03:12:02.329Z,4.22
2018-01-26T03:14:30.682Z,4.00
2018-01-26T03:16:59.098Z,4.40
2018-01-26T03:19:27.888Z,4.45
2018-01-26T03:21:57.046Z,4.18
2018-01-26T03:24:25.804Z,3.80
2018-01-26T03:26:54.926Z,4.20
2018-01-26T03:29:23.310Z,4.00
2018-01-26T03:31:51.776Z,4.10
2018-01-26T03:34:20.921Z,3.97
2018-01-26T03:36:49.427Z,4.87
2018-01-26T03:39:17.857Z,3.80
2018-01-26T03:41:46.989Z,4.82
2018-01-26T03:44:15.392Z,4.82
2018-01-26T03:46:43.757Z,4.28
2018-01-26T03:49:12.350Z,3.83
2018-01-26T03:51:40.721Z,3.75
2018-01-26T03:54:09.103Z,4.12
2018-01-26T03:56:38.895Z,4.70
2018-01-26T03:59:07.386Z,3.90
2018-01-26T04:01:35.753Z,4.05
2018-01-26T04:04:04.997Z,4.15
2018-01-26T04:06:33.420Z,3.85
2018-01-26T04:09:02.058Z,3.97
2018-01-26T04:11:33.954Z,4.65
2018-01-26T04:14:03.108Z,4.10
2018-01-26T04:16:32.473Z,3.22
2018-01-26T04:19:00.865Z,4.70
2018-01-26T04:21:29.264Z,4.15
2018-01-26T04:23:58.627Z,4.43
2018-01-26T04:26:27.041Z,4.60
2018-01-26T04:28:56.174Z,4.40
2018-01-26T04:31:25.025Z,4.72
2018-01-26T04:33:54.179Z,3.42
2018-01-26T04:36:22.561Z,3.95
2018-01-26T04:38:51.038Z,4.30
2018-01-26T04:41:19.433Z,4.72
2018-01-26T04:43:48.588Z,4.05
2018-01-26T04:46:17.044Z,4.18
2018-01-26T04:48:45.434Z,3.80
2018-01-26T04:51:13.853Z,3.83
2018-01-26T04:53:43.087Z,3.20
2018-01-26T04:56:11.474Z,4.70
2018-01-26T04:58:39.877Z,3.75
2018-01-26T05:01:08.460Z,4.03
2018-01-26T05:03:37.079Z,3.65
2018-01-26T05:06:05.508Z,4.43
2018-01-26T05:08:34.002Z,3.42
2018-01-26T05:11:02.406Z,3.80
2018-01-26T05:13:30.828Z,3.95
2018-01-26T05:15:59.294Z,4.25
2018-01-26T05:18:27.675Z,3.95
2018-01-26T05:20:56.032Z,3.62
2018-01-26T05:23:24.498Z,3.97
2018-01-26T05:25:52.885Z,3.83
2018-01-26T05:28:22.042Z,3.42
2018-01-26T05:30:51.466Z,4.25
2018-01-26T05:33:19.860Z,4.57
2018-01-26T05:35:48.891Z,3.62
2018-01-26T05:38:17.362Z,4.50
2018-01-26T05:40:45.916Z,3.85
2018-01-26T05:43:15.119Z,3.80
2018-01-26T05:45:43.483Z,4.25
2018-01-26T05:48:12.866Z,4.00
2018-01-26T05:50:41.228Z,4.30
2018-01-26T05:53:09.676Z,4.37
2018-01-26T05:55:38.193Z,4.40
2018-01-26T05:58:07.424Z,3.80
2018-01-26T06:00:35.808Z,3.60
2018-01-26T06:03:04.411Z,3.50
2018-01-26T06:05:32.855Z,3.25
2018-01-26T06:08:02.016Z,3.75
2018-01-26T06:10:31.000Z,4.05
2018-01-26T06:12:59.392Z,3.78
2018-01-26T06:15:27.775Z,4.05
2018-01-26T06:17:56.267Z,3.87
2018-01-26T06:20:24.652Z,3.90
2018-01-26T06:22:53.838Z,4.10
2018-01-26T06:25:22.395Z,4.45
2018-01-26T06:27:50.864Z,3.72
2018-01-26T06:30:20.021Z,3.50
2018-01-26T06:32:48.579Z,4.00
2018-01-26T06:35:16.979Z,3.75
2018-01-26T06:37:45.347Z,3.92
2018-01-26T06:40:13.812Z,3.65
2018-01-26T06:42:42.982Z,3.03
2018-01-26T06:45:12.177Z,3.62
2018-01-26T06:47:41.392Z,3.60
2018-01-26T06:50:09.798Z,3.50
2018-01-26T06:52:38.214Z,4.10
2018-01-26T06:55:06.861Z,3.85
2018-01-26T06:57:35.982Z,3.90
2018-01-26T07:00:04.382Z,3.30
2018-01-26T07:02:32.976Z,3.30
2018-01-26T07:05:01.354Z,3.50
2018-01-26T07:07:29.739Z,4.05
2018-01-26T07:09:58.874Z,4.03
2018-01-26T07:12:27.510Z,3.67
2018-01-26T07:14:55.908Z,3.60
2018-01-26T07:17:24.381Z,3.10
2018-01-26T07:19:52.788Z,3.40
2018-01-26T07:22:21.164Z,4.00
2018-01-26T07:24:50.453Z,3.42
2018-01-26T07:27:18.861Z,3.55
2018-01-26T07:29:47.233Z,3.40
2018-01-26T07:32:15.724Z,4.35
2018-01-26T07:34:44.225Z,3.47
2018-01-26T07:37:13.411Z,3.22
2018-01-26T07:39:41.869Z,3.50
2018-01-26T07:42:10.281Z,3.40
2018-01-26T07:44:38.743Z,2.97
2018-01-26T07:47:07.194Z,3.25
2018-01-26T07:49:36.433Z,3.47
2018-01-26T07:52:04.898Z,3.08
2018-01-26T07:54:34.278Z,3.30
2018-01-26T07:57:03.515Z,3.60
2018-01-26T07:59:31.926Z,3.60
2018-01-26T08:02:00.452Z,4.20
2018-01-26T08:04:29.641Z,3.92
2018-01-26T08:06:58.071Z,3.65
2018-01-26T08:09:26.633Z,3.20
2018-01-26T08:11:55.027Z,3.90
2018-01-26T08:14:23.850Z,3.60
2018-01-26T08:16:55.589Z,3.70
2018-01-26T08:19:24.008Z,3.90
2018-01-26T08:21:52.394Z,3.72
2018-01-26T08:24:20.956Z,3.62
2018-01-26T08:26:49.357Z,3.75
2018-01-26T08:29:17.783Z,4.10
2018-01-26T08:31:46.546Z,3.37
2018-01-26T08:34:14.910Z,3.97
2018-01-26T08:36:43.298Z,3.80
2018-01-26T08:39:12.140Z,3.63
2018-01-26T08:41:40.595Z,4.22
2018-01-26T08:44:09.062Z,3.90
2018-01-26T08:46:37.498Z,4.75
2018-01-26T08:49:05.919Z,5.82
2018-01-26T08:51:34.272Z,4.50
2018-01-26T08:54:03.639Z,5.17
2018-01-26T08:56:32.064Z,4.77
2018-01-26T08:59:01.287Z,4.70
2018-01-26T09:01:30.040Z,5.10
2018-01-26T09:03:58.827Z,5.50
2018-01-26T09:06:27.277Z,6.00
2018-01-26T09:08:55.767Z,6.47
2018-01-26T09:11:24.160Z,5.60
2018-01-26T09:13:52.537Z,5.47
2018-01-26T09:16:21.647Z,5.10
2018-01-26T09:18:50.034Z,5.83
2018-01-26T09:21:18.461Z,5.90
2018-01-26T09:23:47.097Z,5.83
2018-01-26T09:26:15.484Z,6.60
2018-01-26T09:28:43.911Z,6.30
2018-01-26T09:31:13.531Z,5.10
2018-01-26T09:33:42.690Z,5.27
2018-01-26T09:36:11.097Z,5.67
2018-01-26T09:38:39.594Z,5.90
2018-01-26T09:41:07.967Z,5.53
2018-01-26T09:43:36.328Z,5.20
2018-01-26T09:46:04.892Z,5.67
2018-01-26T09:48:33.287Z,5.20
2018-01-26T09:51:01.674Z,6.00
2018-01-26T09:53:30.503Z,5.90
2018-01-26T09:55:58.904Z,6.40
2018-01-26T09:58:28.038Z,5.97
2018-01-26T10:00:56.519Z,5.70
2018-01-26T10:03:24.896Z,5.37
2018-01-26T10:05:53.273Z,6.70
2018-01-26T10:08:21.743Z,6.70
2018-01-26T10:10:50.911Z,6.50
2018-01-26T10:13:19.402Z,6.40
2018-01-26T10:15:47.993Z,6.30
2018-01-26T10:18:16.509Z,7.20
2018-01-26T10:20:45.633Z,6.60
2018-01-26T10:23:15.104Z,6.63
2018-01-26T10:25:44.269Z,7.30
2018-01-26T10:28:12.686Z,7.00
2018-01-26T10:30:41.079Z,7.07
2018-01-26T10:33:09.454Z,6.73
2018-01-26T10:35:37.818Z,7.20
2018-01-26T10:38:06.411Z,6.60
2018-01-26T10:40:34.761Z,7.13
2018-01-26T10:43:03.684Z,6.93
2018-01-26T10:45:32.488Z,6.50
2018-01-26T10:48:00.879Z,6.93
2018-01-26T10:50:29.327Z,7.10
2018-01-26T10:52:57.785Z,7.23
2018-01-26T10:55:26.939Z,8.47
2018-01-26T10:57:55.315Z,7.30
2018-01-26T11:00:23.836Z,7.40
2018-01-26T11:02:52.247Z,6.87
2018-01-26T11:05:20.628Z,7.50
2018-01-26T11:07:49.175Z,7.17
2018-01-26T11:10:17.578Z,7.10
2018-01-26T11:12:46.699Z,6.93
2018-01-26T11:15:15.167Z,7.10
2018-01-26T11:17:43.738Z,7.13
2018-01-26T11:20:12.552Z,7.47
2018-01-26T11:22:41.608Z,8.60
2018-01-26T11:25:10.161Z,7.93
2018-01-26T11:27:39.188Z,7.00
2018-01-26T11:30:07.764Z,7.57
2018-01-26T11:32:36.494Z,9.03
2018-01-26T11:35:05.212Z,8.07
2018-01-26T11:37:35.103Z,8.30
2018-01-26T11:40:04.470Z,7.83
2018-01-26T11:42:33.895Z,7.40
2018-01-26T11:45:02.919Z,9.00
2018-01-26T11:47:31.283Z,8.25
2018-01-26T11:49:59.689Z,8.73
2018-01-26T11:52:28.221Z,7.90
2018-01-26T11:54:56.627Z,8.43
2018-01-26T11:57:25.024Z,7.87
2018-01-26T11:59:53.650Z,7.80
2018-01-26T12:02:22.210Z,8.23
2018-01-26T12:04:50.731Z,6.73
2018-01-26T12:07:19.313Z,7.90
2018-01-26T12:09:48.494Z,7.90
2018-01-26T12:12:17.758Z,8.57
2018-01-26T12:14:46.186Z,7.10
2018-01-26T12:17:14.574Z,7.43
2018-01-26T12:19:43.755Z,8.13
2018-01-26T12:22:12.375Z,6.73
2018-01-26T12:24:40.814Z,6.77
2018-01-26T12:27:09.215Z,7.03
2018-01-26T12:29:40.713Z,6.80
2018-01-26T12:32:09.301Z,6.37
2018-01-26T12:34:37.975Z,6.10
2018-01-26T12:37:06.729Z,6.40
2018-01-26T12:39:35.668Z,5.00
2018-01-26T12:42:04.674Z,5.80
2018-01-26T12:44:33.926Z,5.50
2018-01-26T12:47:02.729Z,5.23
2018-01-26T12:49:32.490Z,5.93
2018-01-26T12:52:02.167Z,5.83
2018-01-26T12:54:30.791Z,5.27
2018-01-26T12:56:59.538Z,5.53
2018-01-26T12:59:28.292Z,6.10
2018-01-26T13:02:01.615Z,5.33
2018-01-26T13:04:31.506Z,6.63
2018-01-26T13:07:01.010Z,5.87
2018-01-26T13:09:29.976Z,5.83
2018-01-26T13:11:58.510Z,6.43
2018-01-26T13:14:27.422Z,6.00
2018-01-26T13:16:59.925Z,6.07
2018-01-26T13:19:30.578Z,5.80
2018-01-26T13:21:59.088Z,6.30
2018-01-26T13:24:28.126Z,7.03
2018-01-26T13:27:05.395Z,6.87
2018-01-26T13:29:33.900Z,5.10
2018-01-26T13:32:03.450Z,5.60
2018-01-26T13:34:33.064Z,5.30
2018-01-26T13:37:02.247Z,5.37
2018-01-26T13:39:30.775Z,5.17
2018-01-26T13:41:59.149Z,6.33
2018-01-26T13:44:27.604Z,6.53
2018-01-26T13:46:56.148Z,6.97
2018-01-26T13:49:25.193Z,6.93
2018-01-26T13:51:53.734Z,6.10
2018-01-26T13:54:22.872Z,6.30
2018-01-26T13:56:51.439Z,6.13
2018-01-26T13:59:20.627Z,6.23
2018-01-26T14:01:49.855Z,6.00
2018-01-26T14:04:18.265Z,6.83
2018-01-26T14:06:49.261Z,6.30
2018-01-26T14:09:18.738Z,6.73
2018-01-26T14:11:47.833Z,6.23
2018-01-26T14:14:17.699Z,6.80
2018-01-26T14:16:46.290Z,6.43
2018-01-26T14:19:14.900Z,7.10
2018-01-26T14:21:44.815Z,6.90
2018-01-26T14:24:13.309Z,6.87
2018-01-26T14:26:43.070Z,7.10
2018-01-26T14:29:12.480Z,7.83
2018-01-26T14:31:40.989Z,6.60
2018-01-26T14:34:10.246Z,7.23
2018-01-26T14:36:39.053Z,7.17
2018-01-26T14:39:07.449Z,8.00
2018-01-26T14:41:36.690Z,6.20
2018-01-26T14:44:05.942Z,7.63
2018-01-26T14:46:34.368Z,8.40
2018-01-26T14:49:02.751Z,7.63
2018-01-26T14:51:32.089Z,8.30
2018-01-26T14:54:00.481Z,9.27
2018-01-26T14:56:29.249Z,8.87
2018-01-26T14:58:58.218Z,8.37
2018-01-26T15:01:27.586Z,8.70
2018-01-26T15:03:56.257Z,7.77
2018-01-26T15:06:25.779Z,8.10
2018-01-26T15:08:54.217Z,7.87
2018-01-26T15:11:22.664Z,7.63
2018-01-26T15:13:51.138Z,8.53
2018-01-26T15:16:19.520Z,8.37
2018-01-26T15:18:48.041Z,8.87
2018-01-26T15:21:16.724Z,7.93
2018-01-26T15:23:45.170Z,8.23
2018-01-26T15:26:13.605Z,7.60
2018-01-26T15:28:46.961Z,6.97
2018-01-26T15:31:16.638Z,7.60
2018-01-26T15:33:46.097Z,7.40
2018-01-26T15:36:14.628Z,7.43
2018-01-26T15:38:43.063Z,6.80
2018-01-26T15:41:11.706Z,7.20
2018-01-26T15:43:40.643Z,6.97
2018-01-26T15:46:13.521Z,6.30
2018-01-26T15:48:42.691Z,7.20
2018-01-26T15:51:11.389Z,7.70
2018-01-26T15:53:40.220Z,7.20
2018-01-26T15:56:08.837Z,7.70
2018-01-26T15:58:37.217Z,9.17
2018-01-26T16:01:06.123Z,8.43
2018-01-26T16:03:35.562Z,8.83
2018-01-26T16:06:04.725Z,8.70
2018-01-26T16:08:33.318Z,8.83
2018-01-26T16:11:02.499Z,9.70
2018-01-26T16:13:31.173Z,10.10
2018-01-26T16:16:04.921Z,9.80
2018-01-26T16:18:34.147Z,9.13
2018-01-26T16:21:04.909Z,9.47
2018-01-26T16:23:34.608Z,10.10
2018-01-26T16:26:03.868Z,10.77
2018-01-26T16:28:32.687Z,10.50
2018-01-26T16:31:01.693Z,10.40
2018-01-26T16:33:30.415Z,11.40
2018-01-26T16:36:00.078Z,10.90
2018-01-26T16:38:28.928Z,9.70
2018-01-26T16:40:58.360Z,9.63
2018-01-26T16:43:29.229Z,11.07
2018-01-26T16:45:58.695Z,11.80
2018-01-26T16:48:27.233Z,10.90
2018-01-26T16:50:57.251Z,13.00
2018-01-26T16:53:25.901Z,12.63
2018-01-26T16:55:54.528Z,12.13
2018-01-26T16:58:26.184Z,12.17
2018-01-26T17:00:54.877Z,11.43
2018-01-26T17:03:32.781Z,11.80
2018-01-26T17:06:05.586Z,12.23
2018-01-26T17:08:35.686Z,12.40
2018-01-26T17:11:04.879Z,12.57
2018-01-26T17:13:34.045Z,11.43
2018-01-26T17:16:04.906Z,13.00
2018-01-26T17:18:33.863Z,14.10
2018-01-26T17:21:02.972Z,13.23
2018-01-26T17:23:32.140Z,12.33
2018-01-26T17:26:05.021Z,13.27
2018-01-26T17:28:35.335Z,12.97
2018-01-26T17:31:04.845Z,12.90
2018-01-26T17:33:33.653Z,13.03
2018-01-26T17:36:02.529Z,13.10
2018-01-26T17:38:31.258Z,13.33
2018-01-26T17:41:00.669Z,14.57
2018-01-26T17:43:31.079Z,14.27
2018-01-26T17:46:01.579Z,14.53
2018-01-26T17:48:30.449Z,13.80
2018-01-26T17:50:59.370Z,14.03
2018-01-26T17:53:29.082Z,14.60
2018-01-26T17:55:59.472Z,13.10
2018-01-26T17:58:31.196Z,13.17
2018-01-26T18:01:02.861Z,14.10
2018-01-26T18:03:32.096Z,14.37
2018-01-26T18:06:01.044Z,14.00
2018-01-26T18:08:30.515Z,14.17
2018-01-26T18:10:59.353Z,16.40
2018-01-26T18:13:28.532Z,16.07
2018-01-26T18:15:57.566Z,15.30
2018-01-26T18:18:26.846Z,15.43
2018-01-26T18:20:56.618Z,15.30
2018-01-26T18:23:25.613Z,15.13
2018-01-26T18:25:55.114Z,15.03
2018-01-26T18:28:24.756Z,15.97
2018-01-26T18:30:54.265Z,16.20
2018-01-26T18:33:24.011Z,14.70
2018-01-26T18:35:52.783Z,15.50
2018-01-26T18:38:22.279Z,16.80
2018-01-26T18:40:52.614Z,17.03
2018-01-26T18:43:21.498Z,16.43
2018-01-26T18:45:50.076Z,17.37
2018-01-26T18:48:18.779Z,14.10
2018-01-26T18:50:47.904Z,14.33
2018-01-26T18:53:16.924Z,14.23
2018-01-26T18:55:45.518Z,17.00
2018-01-26T18:58:14.488Z,15.70
2018-01-26T19:00:43.081Z,16.33
2018-01-26T19:03:11.493Z,15.20
2018-01-26T19:05:42.284Z,16.03
2018-01-26T19:08:11.659Z,18.03
2018-01-26T19:10:40.174Z,17.73
2018-01-26T19:13:09.877Z,17.10
2018-01-26T19:15:39.193Z,18.00
2018-01-26T19:18:08.258Z,16.67
2018-01-26T19:20:37.350Z,17.37
2018-01-26T19:23:05.918Z,18.23
2018-01-26T19:25:34.375Z,18.30
2018-01-26T19:28:02.925Z,19.27
2018-01-26T19:30:32.123Z,19.47
2018-01-26T19:33:00.555Z,19.77
2018-01-26T19:35:29.962Z,21.77
2018-01-26T19:37:59.162Z,17.80
2018-01-26T19:40:27.957Z,19.03
2018-01-26T19:42:58.659Z,17.93
2018-01-26T19:45:28.002Z,20.60
2018-01-26T19:47:57.505Z,20.33
2018-01-26T19:50:26.390Z,20.10
2018-01-26T19:52:54.864Z,22.57
2018-01-26T19:55:24.493Z,18.93
2018-01-26T19:57:53.880Z,18.93
2018-01-26T20:00:24.045Z,18.87
2018-01-26T20:02:53.833Z,17.50
2018-01-26T20:05:40.352Z,17.63
2018-01-26T20:08:26.837Z,18.10
2018-01-26T20:10:55.688Z,19.87
2018-01-26T20:13:29.587Z,20.30
2018-01-26T20:15:59.940Z,18.40
2018-01-26T20:18:29.348Z,19.03
2018-01-26T20:20:58.603Z,18.57
2018-01-26T20:23:28.251Z,18.37
2018-01-26T20:25:59.621Z,18.67
2018-01-26T20:28:29.333Z,17.10
2018-01-26T20:30:59.011Z,16.87
2018-01-26T20:33:28.326Z,16.70
2018-01-26T20:35:59.603Z,18.27
2018-01-26T20:38:30.059Z,18.07
2018-01-26T20:40:58.632Z,16.60
2018-01-26T20:43:27.568Z,18.90
2018-01-26T20:45:57.327Z,16.70
2018-01-26T20:48:27.394Z,14.90
2018-01-26T20:50:56.380Z,17.20
2018-01-26T20:53:27.479Z,14.90
2018-01-26T20:56:04.148Z,15.40
2018-01-26T20:58:33.427Z,14.50
2018-01-26T21:01:02.685Z,14.60
2018-01-26T21:03:32.204Z,15.77
2018-01-26T21:06:03.153Z,14.50
2018-01-26T21:08:33.198Z,14.57
2018-01-26T21:11:01.934Z,18.17
2018-01-26T21:13:31.683Z,16.75
2018-01-26T21:16:00.503Z,15.00
2018-01-26T21:18:30.078Z,15.23
2018-01-26T21:21:00.519Z,12.20
2018-01-26T21:23:29.073Z,13.40
2018-01-26T21:25:57.507Z,11.53
2018-01-26T21:28:26.878Z,12.00
2018-01-26T21:30:55.380Z,13.57
2018-01-26T21:33:24.996Z,14.60
2018-01-26T21:35:53.744Z,15.47
2018-01-26T21:38:23.050Z,15.40
2018-01-26T21:40:52.757Z,11.68
2018-01-26T21:43:22.479Z,13.23
2018-01-26T21:45:52.523Z,12.27
2018-01-26T21:48:22.364Z,12.33
2018-01-26T21:50:53.778Z,11.00
2018-01-26T21:53:24.765Z,10.93
2018-01-26T21:55:53.711Z,10.33
2018-01-26T21:58:22.125Z,10.93
2018-01-26T22:00:50.866Z,11.63
2018-01-26T22:03:19.613Z,11.67
2018-01-26T22:05:48.270Z,12.60
2018-01-26T22:08:20.679Z,12.00
2018-01-26T22:10:51.113Z,11.83
2018-01-26T22:13:20.894Z,12.77
2018-01-26T22:15:50.180Z,13.30
2018-01-26T22:18:18.845Z,14.18
2018-01-26T22:20:47.388Z,17.60
2018-01-26T22:23:16.766Z,19.45
2018-01-26T22:25:45.874Z,16.98
2018-01-26T22:28:14.827Z,16.77
2018-01-26T22:30:43.664Z,23.30
2018-01-26T22:33:12.574Z,19.87
2018-01-26T22:35:41.342Z,24.30
2018-01-26T22:38:10.997Z,25.00
2018-01-26T22:40:40.100Z,24.87
2018-01-26T22:43:08.785Z,30.85
2018-01-26T22:45:38.106Z,31.12
2018-01-26T22:48:07.844Z,28.07
2018-01-26T22:50:37.055Z,27.92
2018-01-26T22:53:08.996Z,29.70
2018-01-26T22:55:38.062Z,27.05
2018-01-26T22:58:06.923Z,27.05
2018-01-26T23:00:36.687Z,27.97
2018-01-26T23:03:06.491Z,31.98
2018-01-26T23:05:36.383Z,27.80
2018-01-26T23:08:06.352Z,28.40
2018-01-26T23:10:35.939Z,27.98
2018-01-26T23:13:04.722Z,25.27
2018-01-26T23:15:33.356Z,24.70
2018-01-26T23:18:02.040Z,29.15
2018-01-26T23:20:30.889Z,24.63
2018-01-26T23:23:00.099Z,25.42
2018-01-26T23:25:29.826Z,26.67
2018-01-26T23:27:59.064Z,26.58
2018-01-26T23:30:27.906Z,27.50
2018-01-26T23:32:58.430Z,27.07
2018-01-26T23:35:28.041Z,26.77
2018-01-26T23:37:57.778Z,25.90
2018-01-26T23:40:26.335Z,23.90
2018-01-26T23:42:55.171Z,25.98
2018-01-26T23:45:23.554Z,25.58
2018-01-26T23:47:51.973Z,21.20
2018-01-26T23:50:20.469Z,20.23
2018-01-26T23:52:48.892Z,23.58
2018-01-26T23:55:17.279Z,23.33
2018-01-26T23:57:46.106Z,25.08
